sensor_id;sensor_type;location;lat;lon;timestamp;P1;durP1;ratioP1;P2;durP2;ratioP2
4464;SDS011;2245;48.136;13.428;2022-11-15T00:01:07;11.77;;;5.40;;
4464;SDS011;2245;48.136;13.428;2022-11-15T00:03:34;13.53;;;6.57;;
4464;SDS011;2245;48.136;13.428;2022-11-15T00:06:08;8.97;;;4.70;;
4464;SDS011;2245;48.136;13.428;2022-11-15T00:08:38;6.97;;;5.07;;
4464;SDS011;2245;48.136;13.428;2022-11-15T00:11:05;11.03;;;5.30;;
4464;SDS011;2245;48.136;13.428;2022-11-15T00:13:35;8.37;;;4.43;;
4464;SDS011;2245;48.136;13.428;2022-11-15T00:16:04;8.43;;;4.80;;
4464;SDS011;2245;48.136;13.428;2022-11-15T00:18:38;9.47;;;4.93;;
4464;SDS011;2245;48.136;13.428;2022-11-15T00:21:08;6.60;;;4.93;;
4464;SDS011;2245;48.136;13.428;2022-11-15T00:23:53;9.73;;;5.87;;
4464;SDS011;2245;48.136;13.428;2022-11-15T00:26:20;11.43;;;5.70;;
4464;SDS011;2245;48.136;13.428;2022-11-15T00:28:52;8.03;;;4.93;;
4464;SDS011;2245;48.136;13.428;2022-11-15T00:31:25;9.40;;;4.80;;
4464;SDS011;2245;48.136;13.428;2022-11-15T00:33:54;14.63;;;4.90;;
4464;SDS011;2245;48.136;13.428;2022-11-15T00:36:25;7.93;;;4.60;;
4464;SDS011;2245;48.136;13.428;2022-11-15T00:38:54;7.60;;;4.83;;
4464;SDS011;2245;48.136;13.428;2022-11-15T00:41:21;7.03;;;4.23;;
4464;SDS011;2245;48.136;13.428;2022-11-15T00:43:49;10.10;;;5.10;;
4464;SDS011;2245;48.136;13.428;2022-11-15T00:46:20;9.97;;;5.00;;
4464;SDS011;2245;48.136;13.428;2022-11-15T00:48:49;7.67;;;4.63;;
4464;SDS011;2245;48.136;13.428;2022-11-15T00:51:16;5.60;;;3.30;;
4464;SDS011;2245;48.136;13.428;2022-11-15T00:53:47;10.63;;;5.77;;
4464;SDS011;2245;48.136;13.428;2022-11-15T00:56:14;6.93;;;4.90;;
4464;SDS011;2245;48.136;13.428;2022-11-15T00:58:41;4.93;;;3.23;;
4464;SDS011;2245;48.136;13.428;2022-11-15T01:01:08;5.07;;;3.90;;
4464;SDS011;2245;48.136;13.428;2022-11-15T01:03:38;7.50;;;4.63;;
4464;SDS011;2245;48.136;13.428;2022-11-15T01:06:06;13.40;;;4.83;;
4464;SDS011;2245;48.136;13.428;2022-11-15T01:08:39;8.00;;;4.47;;
4464;SDS011;2245;48.136;13.428;2022-11-15T01:11:16;5.50;;;4.67;;
4464;SDS011;2245;48.136;13.428;2022-11-15T01:13:46;8.50;;;4.37;;
4464;SDS011;2245;48.136;13.428;2022-11-15T01:16:14;7.77;;;5.40;;
4464;SDS011;2245;48.136;13.428;2022-11-15T01:18:50;11.67;;;4.93;;
4464;SDS011;2245;48.136;13.428;2022-11-15T01:21:18;7.37;;;4.20;;
4464;SDS011;2245;48.136;13.428;2022-11-15T01:23:52;5.20;;;3.33;;
4464;SDS011;2245;48.136;13.428;2022-11-15T01:26:22;5.73;;;5.13;;
4464;SDS011;2245;48.136;13.428;2022-11-15T01:28:56;7.70;;;4.17;;
4464;SDS011;2245;48.136;13.428;2022-11-15T01:31:24;7.97;;;4.47;;
4464;SDS011;2245;48.136;13.428;2022-11-15T01:33:53;11.17;;;4.97;;
4464;SDS011;2245;48.136;13.428;2022-11-15T01:36:21;7.47;;;4.03;;
4464;SDS011;2245;48.136;13.428;2022-11-15T01:38:52;7.37;;;4.40;;
4464;SDS011;2245;48.136;13.428;2022-11-15T01:41:22;8.07;;;4.87;;
4464;SDS011;2245;48.136;13.428;2022-11-15T01:43:52;7.50;;;4.07;;
4464;SDS011;2245;48.136;13.428;2022-11-15T01:46:25;7.20;;;4.63;;
4464;SDS011;2245;48.136;13.428;2022-11-15T01:49:03;12.70;;;6.10;;
4464;SDS011;2245;48.136;13.428;2022-11-15T01:51:37;9.40;;;4.80;;
4464;SDS011;2245;48.136;13.428;2022-11-15T01:54:08;7.20;;;4.70;;
4464;SDS011;2245;48.136;13.428;2022-11-15T01:56:41;9.33;;;4.03;;
4464;SDS011;2245;48.136;13.428;2022-11-15T01:59:14;9.00;;;4.70;;
4464;SDS011;2245;48.136;13.428;2022-11-15T02:01:42;8.20;;;5.07;;
4464;SDS011;2245;48.136;13.428;2022-11-15T02:04:11;11.27;;;5.77;;
4464;SDS011;2245;48.136;13.428;2022-11-15T02:06:39;8.23;;;4.30;;
4464;SDS011;2245;48.136;13.428;2022-11-15T02:09:10;13.73;;;4.17;;
4464;SDS011;2245;48.136;13.428;2022-11-15T02:11:37;4.10;;;3.30;;
4464;SDS011;2245;48.136;13.428;2022-11-15T02:14:07;10.37;;;5.00;;
4464;SDS011;2245;48.136;13.428;2022-11-15T02:16:43;5.10;;;4.47;;
4464;SDS011;2245;48.136;13.428;2022-11-15T02:19:21;5.67;;;4.77;;
4464;SDS011;2245;48.136;13.428;2022-11-15T02:22:00;4.53;;;3.80;;
4464;SDS011;2245;48.136;13.428;2022-11-15T02:24:50;5.77;;;3.70;;
4464;SDS011;2245;48.136;13.428;2022-11-15T02:30:42;6.70;;;5.13;;
4464;SDS011;2245;48.136;13.428;2022-11-15T02:33:14;6.43;;;3.53;;
4464;SDS011;2245;48.136;13.428;2022-11-15T02:35:57;8.00;;;4.50;;
4464;SDS011;2245;48.136;13.428;2022-11-15T02:38:29;9.80;;;4.27;;
4464;SDS011;2245;48.136;13.428;2022-11-15T02:40:58;4.57;;;3.87;;
4464;SDS011;2245;48.136;13.428;2022-11-15T02:43:33;5.60;;;3.43;;
4464;SDS011;2245;48.136;13.428;2022-11-15T02:46:29;10.17;;;4.80;;
4464;SDS011;2245;48.136;13.428;2022-11-15T02:49:16;9.17;;;4.90;;
4464;SDS011;2245;48.136;13.428;2022-11-15T02:51:45;5.63;;;3.90;;
4464;SDS011;2245;48.136;13.428;2022-11-15T02:54:15;9.23;;;5.53;;
4464;SDS011;2245;48.136;13.428;2022-11-15T02:56:49;5.93;;;4.03;;
4464;SDS011;2245;48.136;13.428;2022-11-15T02:59:20;7.80;;;4.30;;
4464;SDS011;2245;48.136;13.428;2022-11-15T03:01:59;7.90;;;4.07;;
4464;SDS011;2245;48.136;13.428;2022-11-15T03:04:35;7.90;;;4.10;;
4464;SDS011;2245;48.136;13.428;2022-11-15T03:07:05;9.10;;;4.57;;
4464;SDS011;2245;48.136;13.428;2022-11-15T03:09:44;7.07;;;4.83;;
4464;SDS011;2245;48.136;13.428;2022-11-15T03:12:24;9.40;;;4.33;;
4464;SDS011;2245;48.136;13.428;2022-11-15T03:15:04;5.63;;;4.07;;
4464;SDS011;2245;48.136;13.428;2022-11-15T03:17:37;4.83;;;3.17;;
4464;SDS011;2245;48.136;13.428;2022-11-15T03:20:09;8.07;;;5.40;;
4464;SDS011;2245;48.136;13.428;2022-11-15T03:22:40;6.60;;;3.83;;
4464;SDS011;2245;48.136;13.428;2022-11-15T03:25:16;5.37;;;3.53;;
4464;SDS011;2245;48.136;13.428;2022-11-15T03:27:46;9.97;;;4.80;;
4464;SDS011;2245;48.136;13.428;2022-11-15T03:30:19;5.47;;;4.87;;
4464;SDS011;2245;48.136;13.428;2022-11-15T03:33:00;10.27;;;4.70;;
4464;SDS011;2245;48.136;13.428;2022-11-15T03:35:32;6.80;;;4.07;;
4464;SDS011;2245;48.136;13.428;2022-11-15T03:38:07;9.50;;;4.63;;
4464;SDS011;2245;48.136;13.428;2022-11-15T03:40:38;8.33;;;4.23;;
4464;SDS011;2245;48.136;13.428;2022-11-15T03:43:14;6.60;;;4.30;;
4464;SDS011;2245;48.136;13.428;2022-11-15T03:45:45;9.10;;;4.90;;
4464;SDS011;2245;48.136;13.428;2022-11-15T03:48:16;7.23;;;4.60;;
4464;SDS011;2245;48.136;13.428;2022-11-15T03:50:46;11.50;;;3.73;;
4464;SDS011;2245;48.136;13.428;2022-11-15T03:53:14;5.93;;;4.30;;
4464;SDS011;2245;48.136;13.428;2022-11-15T03:55:45;7.33;;;5.20;;
4464;SDS011;2245;48.136;13.428;2022-11-15T03:58:14;22.03;;;4.23;;
4464;SDS011;2245;48.136;13.428;2022-11-15T04:00:41;6.80;;;3.67;;
4464;SDS011;2245;48.136;13.428;2022-11-15T04:03:12;8.80;;;4.33;;
4464;SDS011;2245;48.136;13.428;2022-11-15T04:05:40;4.60;;;3.80;;
4464;SDS011;2245;48.136;13.428;2022-11-15T04:08:09;7.80;;;4.77;;
4464;SDS011;2245;48.136;13.428;2022-11-15T04:10:36;6.60;;;4.13;;
4464;SDS011;2245;48.136;13.428;2022-11-15T04:13:05;8.40;;;4.37;;
4464;SDS011;2245;48.136;13.428;2022-11-15T04:15:33;6.30;;;3.37;;
4464;SDS011;2245;48.136;13.428;2022-11-15T04:18:02;7.53;;;4.30;;
4464;SDS011;2245;48.136;13.428;2022-11-15T04:20:31;8.93;;;5.53;;
4464;SDS011;2245;48.136;13.428;2022-11-15T04:23:19;10.07;;;4.63;;
4464;SDS011;2245;48.136;13.428;2022-11-15T04:26:06;8.03;;;4.57;;
4464;SDS011;2245;48.136;13.428;2022-11-15T04:28:34;11.50;;;4.00;;
4464;SDS011;2245;48.136;13.428;2022-11-15T04:31:21;11.43;;;4.27;;
4464;SDS011;2245;48.136;13.428;2022-11-15T04:33:58;10.70;;;4.10;;
4464;SDS011;2245;48.136;13.428;2022-11-15T04:36:40;4.40;;;3.53;;
4464;SDS011;2245;48.136;13.428;2022-11-15T04:39:30;9.00;;;5.40;;
4464;SDS011;2245;48.136;13.428;2022-11-15T04:42:00;7.00;;;4.20;;
4464;SDS011;2245;48.136;13.428;2022-11-15T04:44:36;7.67;;;4.60;;
4464;SDS011;2245;48.136;13.428;2022-11-15T04:47:03;5.63;;;3.93;;
4464;SDS011;2245;48.136;13.428;2022-11-15T04:49:31;6.87;;;4.43;;
4464;SDS011;2245;48.136;13.428;2022-11-15T04:51:58;10.27;;;4.27;;
4464;SDS011;2245;48.136;13.428;2022-11-15T04:54:28;6.10;;;3.87;;
4464;SDS011;2245;48.136;13.428;2022-11-15T04:57:07;8.63;;;4.97;;
4464;SDS011;2245;48.136;13.428;2022-11-15T04:59:38;13.13;;;5.30;;
4464;SDS011;2245;48.136;13.428;2022-11-15T05:02:05;8.20;;;3.70;;
4464;SDS011;2245;48.136;13.428;2022-11-15T05:04:33;8.80;;;4.47;;
4464;SDS011;2245;48.136;13.428;2022-11-15T05:07:02;5.53;;;3.43;;
4464;SDS011;2245;48.136;13.428;2022-11-15T05:09:32;7.87;;;3.20;;
4464;SDS011;2245;48.136;13.428;2022-11-15T05:12:09;3.40;;;3.10;;
4464;SDS011;2245;48.136;13.428;2022-11-15T05:14:38;9.73;;;4.60;;
4464;SDS011;2245;48.136;13.428;2022-11-15T05:17:07;6.47;;;4.30;;
4464;SDS011;2245;48.136;13.428;2022-11-15T05:19:35;5.30;;;4.30;;
4464;SDS011;2245;48.136;13.428;2022-11-15T05:22:02;8.60;;;5.40;;
4464;SDS011;2245;48.136;13.428;2022-11-15T05:24:44;12.60;;;5.03;;
4464;SDS011;2245;48.136;13.428;2022-11-15T05:27:15;9.30;;;4.60;;
4464;SDS011;2245;48.136;13.428;2022-11-15T05:29:42;8.17;;;5.77;;
4464;SDS011;2245;48.136;13.428;2022-11-15T05:32:13;9.37;;;5.10;;
4464;SDS011;2245;48.136;13.428;2022-11-15T05:34:40;10.80;;;4.87;;
4464;SDS011;2245;48.136;13.428;2022-11-15T05:37:09;12.50;;;5.30;;
4464;SDS011;2245;48.136;13.428;2022-11-15T05:39:36;5.13;;;3.93;;
4464;SDS011;2245;48.136;13.428;2022-11-15T05:42:18;4.30;;;3.90;;
4464;SDS011;2245;48.136;13.428;2022-11-15T05:44:46;9.30;;;5.17;;
4464;SDS011;2245;48.136;13.428;2022-11-15T05:47:15;7.20;;;4.70;;
4464;SDS011;2245;48.136;13.428;2022-11-15T05:49:45;7.57;;;4.37;;
4464;SDS011;2245;48.136;13.428;2022-11-15T05:52:14;11.93;;;4.47;;
4464;SDS011;2245;48.136;13.428;2022-11-15T05:54:43;29.33;;;7.00;;
4464;SDS011;2245;48.136;13.428;2022-11-15T05:57:11;7.47;;;4.40;;
4464;SDS011;2245;48.136;13.428;2022-11-15T05:59:40;8.67;;;5.20;;
4464;SDS011;2245;48.136;13.428;2022-11-15T06:02:11;9.30;;;5.20;;
4464;SDS011;2245;48.136;13.428;2022-11-15T06:04:40;10.23;;;5.67;;
4464;SDS011;2245;48.136;13.428;2022-11-15T06:07:10;6.90;;;4.93;;
4464;SDS011;2245;48.136;13.428;2022-11-15T06:09:37;22.23;;;5.73;;
4464;SDS011;2245;48.136;13.428;2022-11-15T06:12:06;8.30;;;5.00;;
4464;SDS011;2245;48.136;13.428;2022-11-15T06:14:33;8.53;;;5.47;;
4464;SDS011;2245;48.136;13.428;2022-11-15T06:17:02;8.27;;;4.63;;
4464;SDS011;2245;48.136;13.428;2022-11-15T06:19:31;5.47;;;4.37;;
4464;SDS011;2245;48.136;13.428;2022-11-15T06:22:01;5.77;;;4.03;;
4464;SDS011;2245;48.136;13.428;2022-11-15T06:24:32;12.37;;;5.30;;
4464;SDS011;2245;48.136;13.428;2022-11-15T06:26:58;14.50;;;4.80;;
4464;SDS011;2245;48.136;13.428;2022-11-15T06:29:28;6.83;;;4.97;;
4464;SDS011;2245;48.136;13.428;2022-11-15T06:31:57;6.07;;;4.23;;
4464;SDS011;2245;48.136;13.428;2022-11-15T06:34:30;12.70;;;5.93;;
4464;SDS011;2245;48.136;13.428;2022-11-15T06:37:02;9.73;;;5.47;;
4464;SDS011;2245;48.136;13.428;2022-11-15T06:39:29;8.57;;;5.00;;
4464;SDS011;2245;48.136;13.428;2022-11-15T06:41:58;7.90;;;6.03;;
4464;SDS011;2245;48.136;13.428;2022-11-15T06:44:29;17.53;;;5.23;;
4464;SDS011;2245;48.136;13.428;2022-11-15T06:46:58;14.43;;;5.63;;
4464;SDS011;2245;48.136;13.428;2022-11-15T06:49:27;9.47;;;5.70;;
4464;SDS011;2245;48.136;13.428;2022-11-15T06:51:58;8.20;;;5.43;;
4464;SDS011;2245;48.136;13.428;2022-11-15T06:54:26;8.60;;;5.27;;
4464;SDS011;2245;48.136;13.428;2022-11-15T06:56:58;9.47;;;5.63;;
4464;SDS011;2245;48.136;13.428;2022-11-15T06:59:25;11.17;;;5.90;;
4464;SDS011;2245;48.136;13.428;2022-11-15T07:01:53;7.93;;;5.00;;
4464;SDS011;2245;48.136;13.428;2022-11-15T07:04:21;7.90;;;5.27;;
4464;SDS011;2245;48.136;13.428;2022-11-15T07:06:48;11.33;;;7.57;;
4464;SDS011;2245;48.136;13.428;2022-11-15T07:09:17;13.10;;;5.97;;
4464;SDS011;2245;48.136;13.428;2022-11-15T07:11:44;14.60;;;6.30;;
4464;SDS011;2245;48.136;13.428;2022-11-15T07:14:14;10.50;;;5.17;;
4464;SDS011;2245;48.136;13.428;2022-11-15T07:16:45;10.10;;;6.30;;
4464;SDS011;2245;48.136;13.428;2022-11-15T07:19:14;14.17;;;6.00;;
4464;SDS011;2245;48.136;13.428;2022-11-15T07:21:45;9.80;;;5.93;;
4464;SDS011;2245;48.136;13.428;2022-11-15T07:24:13;8.60;;;7.43;;
4464;SDS011;2245;48.136;13.428;2022-11-15T07:26:46;11.07;;;7.60;;
4464;SDS011;2245;48.136;13.428;2022-11-15T07:29:13;15.70;;;6.63;;
4464;SDS011;2245;48.136;13.428;2022-11-15T07:31:42;21.47;;;6.67;;
4464;SDS011;2245;48.136;13.428;2022-11-15T07:34:11;13.03;;;7.20;;
4464;SDS011;2245;48.136;13.428;2022-11-15T07:36:41;10.90;;;6.23;;
4464;SDS011;2245;48.136;13.428;2022-11-15T07:39:10;27.63;;;11.30;;
4464;SDS011;2245;48.136;13.428;2022-11-15T07:41:42;382.07;;;124.87;;
4464;SDS011;2245;48.136;13.428;2022-11-15T07:44:11;119.97;;;39.50;;
4464;SDS011;2245;48.136;13.428;2022-11-15T07:46:38;48.27;;;17.03;;
4464;SDS011;2245;48.136;13.428;2022-11-15T07:49:06;38.00;;;13.93;;
4464;SDS011;2245;48.136;13.428;2022-11-15T07:51:35;79.37;;;26.53;;
4464;SDS011;2245;48.136;13.428;2022-11-15T07:54:02;54.93;;;19.80;;
4464;SDS011;2245;48.136;13.428;2022-11-15T07:56:29;59.37;;;19.93;;
4464;SDS011;2245;48.136;13.428;2022-11-15T07:59:01;37.33;;;13.30;;
4464;SDS011;2245;48.136;13.428;2022-11-15T08:01:29;34.83;;;17.50;;
4464;SDS011;2245;48.136;13.428;2022-11-15T08:03:56;34.53;;;16.63;;
4464;SDS011;2245;48.136;13.428;2022-11-15T08:06:23;35.63;;;14.20;;
4464;SDS011;2245;48.136;13.428;2022-11-15T08:08:51;31.03;;;13.67;;
4464;SDS011;2245;48.136;13.428;2022-11-15T08:11:18;25.97;;;11.27;;
4464;SDS011;2245;48.136;13.428;2022-11-15T08:13:45;16.67;;;10.33;;
4464;SDS011;2245;48.136;13.428;2022-11-15T08:16:15;24.27;;;10.43;;
4464;SDS011;2245;48.136;13.428;2022-11-15T08:18:43;33.10;;;9.13;;
4464;SDS011;2245;48.136;13.428;2022-11-15T08:21:12;13.77;;;7.97;;
4464;SDS011;2245;48.136;13.428;2022-11-15T08:23:43;13.10;;;7.10;;
4464;SDS011;2245;48.136;13.428;2022-11-15T08:26:12;14.70;;;6.70;;
4464;SDS011;2245;48.136;13.428;2022-11-15T08:28:39;8.87;;;4.47;;
4464;SDS011;2245;48.136;13.428;2022-11-15T08:31:13;11.10;;;6.33;;
4464;SDS011;2245;48.136;13.428;2022-11-15T08:33:41;15.90;;;9.70;;
4464;SDS011;2245;48.136;13.428;2022-11-15T08:36:17;19.00;;;12.70;;
4464;SDS011;2245;48.136;13.428;2022-11-15T08:38:44;19.77;;;10.90;;
4464;SDS011;2245;48.136;13.428;2022-11-15T08:41:13;23.60;;;12.07;;
4464;SDS011;2245;48.136;13.428;2022-11-15T08:43:42;19.43;;;10.70;;
4464;SDS011;2245;48.136;13.428;2022-11-15T08:46:10;174.93;;;65.27;;
4464;SDS011;2245;48.136;13.428;2022-11-15T08:48:38;152.57;;;60.77;;
4464;SDS011;2245;48.136;13.428;2022-11-15T08:51:13;131.10;;;50.43;;
4464;SDS011;2245;48.136;13.428;2022-11-15T08:53:43;195.10;;;62.83;;
4464;SDS011;2245;48.136;13.428;2022-11-15T08:56:11;142.33;;;51.03;;
4464;SDS011;2245;48.136;13.428;2022-11-15T08:58:39;147.77;;;52.93;;
4464;SDS011;2245;48.136;13.428;2022-11-15T09:01:13;68.40;;;28.40;;
4464;SDS011;2245;48.136;13.428;2022-11-15T09:03:46;87.27;;;39.70;;
4464;SDS011;2245;48.136;13.428;2022-11-15T09:06:15;96.73;;;42.97;;
4464;SDS011;2245;48.136;13.428;2022-11-15T09:08:42;39.03;;;22.90;;
4464;SDS011;2245;48.136;13.428;2022-11-15T09:11:09;32.73;;;20.93;;
4464;SDS011;2245;48.136;13.428;2022-11-15T09:13:37;19.40;;;13.30;;
4464;SDS011;2245;48.136;13.428;2022-11-15T09:16:06;16.33;;;9.70;;
4464;SDS011;2245;48.136;13.428;2022-11-15T09:18:33;11.97;;;8.70;;
4464;SDS011;2245;48.136;13.428;2022-11-15T09:21:00;11.47;;;8.77;;
4464;SDS011;2245;48.136;13.428;2022-11-15T09:23:30;14.13;;;9.07;;
4464;SDS011;2245;48.136;13.428;2022-11-15T09:26:01;15.33;;;9.37;;
4464;SDS011;2245;48.136;13.428;2022-11-15T09:28:29;17.47;;;11.10;;
4464;SDS011;2245;48.136;13.428;2022-11-15T09:30:59;17.10;;;8.60;;
4464;SDS011;2245;48.136;13.428;2022-11-15T09:33:27;15.73;;;9.33;;
4464;SDS011;2245;48.136;13.428;2022-11-15T09:36:02;14.60;;;8.60;;
4464;SDS011;2245;48.136;13.428;2022-11-15T09:38:34;17.97;;;9.10;;
4464;SDS011;2245;48.136;13.428;2022-11-15T09:44:07;14.83;;;8.13;;
4464;SDS011;2245;48.136;13.428;2022-11-15T09:46:44;10.53;;;8.40;;
4464;SDS011;2245;48.136;13.428;2022-11-15T09:49:20;14.20;;;8.27;;
4464;SDS011;2245;48.136;13.428;2022-11-15T09:51:48;14.63;;;7.83;;
4464;SDS011;2245;48.136;13.428;2022-11-15T09:54:21;16.53;;;8.80;;
4464;SDS011;2245;48.136;13.428;2022-11-15T09:56:53;12.27;;;9.43;;
4464;SDS011;2245;48.136;13.428;2022-11-15T09:59:30;13.27;;;8.23;;
4464;SDS011;2245;48.136;13.428;2022-11-15T10:02:09;10.73;;;8.30;;
4464;SDS011;2245;48.136;13.428;2022-11-15T10:04:45;12.60;;;8.40;;
4464;SDS011;2245;48.136;13.428;2022-11-15T10:07:13;12.37;;;8.37;;
4464;SDS011;2245;48.136;13.428;2022-11-15T10:09:45;10.77;;;8.53;;
4464;SDS011;2245;48.136;13.428;2022-11-15T10:12:17;13.60;;;9.20;;
4464;SDS011;2245;48.136;13.428;2022-11-15T10:14:50;16.20;;;10.10;;
4464;SDS011;2245;48.136;13.428;2022-11-15T10:17:41;12.20;;;8.23;;
4464;SDS011;2245;48.136;13.428;2022-11-15T10:20:21;15.87;;;8.27;;
4464;SDS011;2245;48.136;13.428;2022-11-15T10:22:52;11.53;;;8.40;;
4464;SDS011;2245;48.136;13.428;2022-11-15T10:25:23;14.57;;;8.40;;
4464;SDS011;2245;48.136;13.428;2022-11-15T10:27:53;13.90;;;8.40;;
4464;SDS011;2245;48.136;13.428;2022-11-15T10:30:22;14.07;;;9.13;;
4464;SDS011;2245;48.136;13.428;2022-11-15T10:32:50;12.97;;;8.90;;
4464;SDS011;2245;48.136;13.428;2022-11-15T10:35:22;14.97;;;10.47;;
4464;SDS011;2245;48.136;13.428;2022-11-15T10:38:04;12.77;;;9.67;;
4464;SDS011;2245;48.136;13.428;2022-11-15T10:40:36;15.40;;;11.53;;
4464;SDS011;2245;48.136;13.428;2022-11-15T10:43:18;14.70;;;9.90;;
4464;SDS011;2245;48.136;13.428;2022-11-15T10:45:47;12.87;;;8.80;;
4464;SDS011;2245;48.136;13.428;2022-11-15T10:48:21;14.73;;;8.50;;
4464;SDS011;2245;48.136;13.428;2022-11-15T10:50:57;14.40;;;9.93;;
4464;SDS011;2245;48.136;13.428;2022-11-15T10:53:30;12.30;;;9.13;;
4464;SDS011;2245;48.136;13.428;2022-11-15T10:56:08;30.50;;;9.60;;
4464;SDS011;2245;48.136;13.428;2022-11-15T10:58:41;14.50;;;10.10;;
4464;SDS011;2245;48.136;13.428;2022-11-15T11:01:21;19.97;;;9.50;;
4464;SDS011;2245;48.136;13.428;2022-11-15T11:03:57;15.90;;;10.27;;
4464;SDS011;2245;48.136;13.428;2022-11-15T11:06:26;14.47;;;9.40;;
4464;SDS011;2245;48.136;13.428;2022-11-15T11:08:56;13.70;;;10.10;;
4464;SDS011;2245;48.136;13.428;2022-11-15T11:11:43;13.37;;;10.77;;
4464;SDS011;2245;48.136;13.428;2022-11-15T11:14:13;22.13;;;10.83;;
4464;SDS011;2245;48.136;13.428;2022-11-15T11:16:52;13.50;;;9.43;;
4464;SDS011;2245;48.136;13.428;2022-11-15T11:22:26;14.50;;;9.50;;
4464;SDS011;2245;48.136;13.428;2022-11-15T11:27:54;13.33;;;9.90;;
4464;SDS011;2245;48.136;13.428;2022-11-15T11:30:31;12.87;;;9.10;;
4464;SDS011;2245;48.136;13.428;2022-11-15T11:33:09;15.43;;;10.40;;
4464;SDS011;2245;48.136;13.428;2022-11-15T11:35:45;24.83;;;11.90;;
4464;SDS011;2245;48.136;13.428;2022-11-15T11:38:21;13.97;;;9.83;;
4464;SDS011;2245;48.136;13.428;2022-11-15T11:41:03;13.53;;;9.50;;
4464;SDS011;2245;48.136;13.428;2022-11-15T11:43:37;15.10;;;8.83;;
4464;SDS011;2245;48.136;13.428;2022-11-15T11:46:22;14.53;;;10.30;;
4464;SDS011;2245;48.136;13.428;2022-11-15T11:49:15;17.20;;;10.20;;
4464;SDS011;2245;48.136;13.428;2022-11-15T11:51:47;18.70;;;11.03;;
4464;SDS011;2245;48.136;13.428;2022-11-15T11:54:19;19.23;;;11.37;;
4464;SDS011;2245;48.136;13.428;2022-11-15T11:56:51;13.87;;;10.30;;
4464;SDS011;2245;48.136;13.428;2022-11-15T11:59:23;16.80;;;10.60;;
4464;SDS011;2245;48.136;13.428;2022-11-15T12:01:55;15.03;;;11.33;;
4464;SDS011;2245;48.136;13.428;2022-11-15T12:04:26;16.00;;;11.07;;
4464;SDS011;2245;48.136;13.428;2022-11-15T12:06:59;17.23;;;11.27;;
4464;SDS011;2245;48.136;13.428;2022-11-15T12:09:30;21.10;;;13.40;;
4464;SDS011;2245;48.136;13.428;2022-11-15T12:12:08;15.97;;;10.83;;
4464;SDS011;2245;48.136;13.428;2022-11-15T12:14:44;15.23;;;11.77;;
4464;SDS011;2245;48.136;13.428;2022-11-15T12:17:13;22.20;;;11.87;;
4464;SDS011;2245;48.136;13.428;2022-11-15T12:19:41;20.37;;;11.80;;
4464;SDS011;2245;48.136;13.428;2022-11-15T12:22:10;19.43;;;12.10;;
4464;SDS011;2245;48.136;13.428;2022-11-15T12:24:41;14.40;;;10.60;;
4464;SDS011;2245;48.136;13.428;2022-11-15T12:27:14;18.07;;;11.40;;
4464;SDS011;2245;48.136;13.428;2022-11-15T12:29:46;17.20;;;10.60;;
4464;SDS011;2245;48.136;13.428;2022-11-15T12:32:21;16.17;;;11.30;;
4464;SDS011;2245;48.136;13.428;2022-11-15T12:34:54;16.93;;;11.20;;
4464;SDS011;2245;48.136;13.428;2022-11-15T12:40:32;18.90;;;11.60;;
4464;SDS011;2245;48.136;13.428;2022-11-15T12:46:13;17.27;;;11.20;;
4464;SDS011;2245;48.136;13.428;2022-11-15T12:48:56;20.30;;;12.00;;
4464;SDS011;2245;48.136;13.428;2022-11-15T12:54:53;21.90;;;14.30;;
4464;SDS011;2245;48.136;13.428;2022-11-15T12:57:29;20.77;;;12.00;;
4464;SDS011;2245;48.136;13.428;2022-11-15T13:03:21;20.80;;;12.30;;
4464;SDS011;2245;48.136;13.428;2022-11-15T13:05:56;17.43;;;12.10;;
4464;SDS011;2245;48.136;13.428;2022-11-15T13:08:38;18.03;;;9.97;;
4464;SDS011;2245;48.136;13.428;2022-11-15T13:20:20;16.13;;;11.03;;
4464;SDS011;2245;48.136;13.428;2022-11-15T13:22:52;17.93;;;11.37;;
4464;SDS011;2245;48.136;13.428;2022-11-15T13:25:43;14.20;;;10.00;;
4464;SDS011;2245;48.136;13.428;2022-11-15T13:28:45;16.77;;;11.50;;
4464;SDS011;2245;48.136;13.428;2022-11-15T13:31:25;16.73;;;11.33;;
4464;SDS011;2245;48.136;13.428;2022-11-15T13:33:56;17.70;;;10.70;;
4464;SDS011;2245;48.136;13.428;2022-11-15T13:36:27;18.60;;;11.07;;
4464;SDS011;2245;48.136;13.428;2022-11-15T13:39:00;22.17;;;11.27;;
4464;SDS011;2245;48.136;13.428;2022-11-15T13:41:30;19.40;;;11.13;;
4464;SDS011;2245;48.136;13.428;2022-11-15T13:43:59;13.80;;;10.20;;
4464;SDS011;2245;48.136;13.428;2022-11-15T13:46:27;15.60;;;11.10;;
4464;SDS011;2245;48.136;13.428;2022-11-15T13:48:58;16.50;;;11.67;;
4464;SDS011;2245;48.136;13.428;2022-11-15T13:51:30;15.00;;;10.00;;
4464;SDS011;2245;48.136;13.428;2022-11-15T13:54:03;22.30;;;12.00;;
4464;SDS011;2245;48.136;13.428;2022-11-15T13:56:38;22.97;;;11.77;;
4464;SDS011;2245;48.136;13.428;2022-11-15T13:59:10;12.83;;;9.80;;
4464;SDS011;2245;48.136;13.428;2022-11-15T14:01:42;17.27;;;10.60;;
4464;SDS011;2245;48.136;13.428;2022-11-15T14:04:11;14.40;;;10.63;;
4464;SDS011;2245;48.136;13.428;2022-11-15T14:06:45;17.73;;;10.37;;
4464;SDS011;2245;48.136;13.428;2022-11-15T14:09:23;13.47;;;9.00;;
4464;SDS011;2245;48.136;13.428;2022-11-15T14:14:57;20.97;;;11.73;;
4464;SDS011;2245;48.136;13.428;2022-11-15T14:17:39;22.20;;;10.97;;
4464;SDS011;2245;48.136;13.428;2022-11-15T14:22:58;43.40;;;24.70;;
4464;SDS011;2245;48.136;13.428;2022-11-15T14:25:28;14.63;;;9.83;;
4464;SDS011;2245;48.136;13.428;2022-11-15T14:28:15;15.90;;;10.83;;
4464;SDS011;2245;48.136;13.428;2022-11-15T14:30:55;15.57;;;9.87;;
4464;SDS011;2245;48.136;13.428;2022-11-15T14:33:27;19.10;;;10.53;;
4464;SDS011;2245;48.136;13.428;2022-11-15T14:35:55;16.47;;;10.23;;
4464;SDS011;2245;48.136;13.428;2022-11-15T14:38:32;20.60;;;11.47;;
4464;SDS011;2245;48.136;13.428;2022-11-15T14:40:59;21.53;;;10.07;;
4464;SDS011;2245;48.136;13.428;2022-11-15T14:43:28;18.50;;;10.60;;
4464;SDS011;2245;48.136;13.428;2022-11-15T14:45:58;15.70;;;10.70;;
4464;SDS011;2245;48.136;13.428;2022-11-15T14:48:27;16.43;;;9.87;;
4464;SDS011;2245;48.136;13.428;2022-11-15T14:50:58;16.30;;;10.10;;
4464;SDS011;2245;48.136;13.428;2022-11-15T14:53:25;17.83;;;10.67;;
4464;SDS011;2245;48.136;13.428;2022-11-15T14:55:59;21.93;;;9.90;;
4464;SDS011;2245;48.136;13.428;2022-11-15T14:58:26;19.60;;;11.07;;
4464;SDS011;2245;48.136;13.428;2022-11-15T15:01:12;14.87;;;10.07;;
4464;SDS011;2245;48.136;13.428;2022-11-15T15:03:40;16.53;;;11.23;;
4464;SDS011;2245;48.136;13.428;2022-11-15T15:06:13;16.57;;;9.70;;
4464;SDS011;2245;48.136;13.428;2022-11-15T15:08:43;18.03;;;9.23;;
4464;SDS011;2245;48.136;13.428;2022-11-15T15:11:20;17.00;;;10.20;;
4464;SDS011;2245;48.136;13.428;2022-11-15T15:13:51;20.37;;;12.50;;
4464;SDS011;2245;48.136;13.428;2022-11-15T15:16:22;46.97;;;25.00;;
4464;SDS011;2245;48.136;13.428;2022-11-15T15:18:49;32.23;;;19.10;;
4464;SDS011;2245;48.136;13.428;2022-11-15T15:21:21;21.83;;;13.43;;
4464;SDS011;2245;48.136;13.428;2022-11-15T15:23:52;32.13;;;18.63;;
4464;SDS011;2245;48.136;13.428;2022-11-15T15:26:22;26.10;;;16.00;;
4464;SDS011;2245;48.136;13.428;2022-11-15T15:28:50;20.03;;;14.10;;
4464;SDS011;2245;48.136;13.428;2022-11-15T15:31:20;25.33;;;16.00;;
4464;SDS011;2245;48.136;13.428;2022-11-15T15:33:47;16.53;;;10.70;;
4464;SDS011;2245;48.136;13.428;2022-11-15T15:36:16;15.67;;;11.13;;
4464;SDS011;2245;48.136;13.428;2022-11-15T15:38:44;16.63;;;11.10;;
4464;SDS011;2245;48.136;13.428;2022-11-15T15:41:12;15.33;;;10.50;;
4464;SDS011;2245;48.136;13.428;2022-11-15T15:43:43;13.20;;;9.50;;
4464;SDS011;2245;48.136;13.428;2022-11-15T15:46:14;16.67;;;10.70;;
4464;SDS011;2245;48.136;13.428;2022-11-15T15:48:42;21.93;;;11.73;;
4464;SDS011;2245;48.136;13.428;2022-11-15T15:51:09;17.80;;;11.37;;
4464;SDS011;2245;48.136;13.428;2022-11-15T15:53:38;19.57;;;12.47;;
4464;SDS011;2245;48.136;13.428;2022-11-15T15:56:05;21.20;;;13.30;;